Terminal Aerodrome Forecast
Issued by NWS Cleveland, OH

Home | Current Version | Previous Version | Text Only | Print | Product List | Glossary Off
Versions: 1 2 3 4 5 6 7 8 9 10 11 12 13 14 15 16 17 18 19 20 21 22

000
FTUS41 KCLE 311736
TAFMFD
TAF
KMFD 311736Z 3118/0118 20010KT 4SM -SHRA BR SCT008 OVC015
      TEMPO 3118/3120 1 1/2SM SHRA BR OVC008
     FM312000 01012G20KT P6SM VCSH BKN008 OVC015
     FM010100 35008KT P6SM OVC005=

USA.gov is the U.S. government's official web portal to all federal, state and local government web resources and services.